This is the latest recevied weather packets stored in our database for station/object EA4TN. If no packets are shown the sender has not sent any weather packets the latest 10 day(s).
| Time | Temp. | Humidity | Pressure | Rain* | Wind** | Luminosity | Snow |
|---|---|---|---|---|---|---|---|
| 1777219516 | 27.22° C | 30% | 1016.2 hPa | 0 mm | - | - | - |
| 1777217117 | 26.67° C | 31% | 1016.3 hPa | 0 mm | - | - | - |
| 1777214136 | 25° C | 35% | 1016.7 hPa | 0 mm | - | - | - |
| 1777205117 | 23.89° C | 41% | 1018.6 hPa | 0 mm | - | - | - |
| 1777203316 | 23.33° C | 44% | 1018.8 hPa | 0 mm | - | - | - |
| 1777202716 | 23.33° C | 42% | 1018.9 hPa | 0 mm | - | - | - |
| 1777200317 | 22.22° C | 52% | 1019.2 hPa | 0 mm | - | - | - |
| 1777199716 | 21.67° C | 53% | 1019.1 hPa | 0 mm | - | - | - |
| 1777198516 | 21.67° C | 54% | 1019.3 hPa | 0 mm | - | - | - |
| 1777197316 | 20° C | 62% | 1019.2 hPa | 0 mm | - | - | - |
| 1777187116 | 14.44° C | 86% | 1019 hPa | 0 mm | - | - | - |
| 1777185317 | 13.89° C | 87% | 1019 hPa | 0 mm | - | - | - |
| 1777184117 | 13.33° C | 88% | 1018.7 hPa | 0 mm | - | - | - |
| 1777183516 | 13.33° C | 89% | 1018.8 hPa | 0 mm | - | - | - |
| 1777181717 | 12.78° C | 89% | 1018.1 hPa | 0 mm | - | - | - |
| 1777176937 | 13.33° C | 89% | 1017.8 hPa | 0 mm | - | - | - |
| 1777175717 | 13.89° C | 88% | 1017.9 hPa | 0 mm | - | - | - |
| 1777172717 | 13.89° C | 87% | 1018 hPa | 0 mm | - | - | - |
| 1777171537 | 14.44° C | 86% | 1018.1 hPa | 0 mm | - | - | - |
| 1777170317 | 14.44° C | 86% | 1018.3 hPa | 0 mm | - | - | - |
| 1777166717 | 14.44° C | 85% | 1018.3 hPa | 0 mm | - | - | - |
* Rain latest hour (hover to see other rain measurements)
** Current wind speed in m/s (hover to see current wind gust speed)